Time;durP1;ratioP1;P1;durP2;ratioP2;P2;SDS_P1;SDS_P2;PMS_P1;PMS_P2;Temp;Humidity;BMP_temperature;BMP_pressure;BME280_temperature;BME280_humidity;BME280_pressure;Samples;Min_cycle;Max_cycle;Signal;HPM_P1;HPM_P2
2022/05/31 00:00:25;;;;;;;1.23;0.70;;;;;;;12.92;100.00;99296.09;7403250;19;20007;-93
2022/05/31 00:02:53;;;;;;;4.05;1.98;;;;;;;12.86;100.00;99298.88;7403752;19;20030;-92
2022/05/31 00:05:19;;;;;;;0.95;0.73;;;;;;;12.86;100.00;99298.13;7398408;19;20014;-92
2022/05/31 00:07:45;;;;;;;0.82;0.82;;;;;;;12.89;100.00;99291.50;7398230;19;20023;-92
2022/05/31 00:10:13;;;;;;;1.50;1.00;;;;;;;12.89;100.00;99297.09;7400075;19;20043;-92
2022/05/31 00:12:40;;;;;;;2.38;1.67;;;;;;;12.90;100.00;99302.22;7400025;19;20018;-92
2022/05/31 00:15:08;;;;;;;4.88;1.70;;;;;;;12.90;100.00;99304.22;7406416;19;20460;-92
2022/05/31 00:17:35;;;;;;;3.47;1.20;;;;;;;12.85;100.00;99296.59;7402369;19;20010;-92
2022/05/31 00:20:04;;;;;;;3.38;0.88;;;;;;;12.82;100.00;99292.03;7401331;19;20026;-92
2022/05/31 00:22:32;;;;;;;2.85;0.82;;;;;;;12.85;100.00;99302.19;7402206;19;20018;-93
2022/05/31 00:24:58;;;;;;;3.45;1.42;;;;;;;12.90;100.00;99290.25;7396749;19;20014;-86
2022/05/31 00:27:26;;;;;;;2.78;0.63;;;;;;;12.93;100.00;99292.03;7402521;19;20606;-89
2022/05/31 00:29:53;;;;;;;1.98;1.05;;;;;;;12.94;100.00;99288.75;7402404;19;20086;-91
2022/05/31 00:32:26;;;;;;;1.55;0.93;;;;;;;12.95;100.00;99289.50;7400382;19;20108;-86
2022/05/31 00:34:55;;;;;;;5.30;1.05;;;;;;;12.96;100.00;99291.03;7399908;19;20019;-86
2022/05/31 00:37:22;;;;;;;0.93;0.82;;;;;;;12.94;100.00;99299.16;7399155;19;20018;-86
2022/05/31 00:39:48;;;;;;;1.65;1.00;;;;;;;12.92;100.00;99291.28;7401078;19;20018;-84
2022/05/31 00:42:21;;;;;;;1.42;0.95;;;;;;;12.90;100.00;99293.06;7401202;19;20484;-86
2022/05/31 00:44:49;;;;;;;2.00;0.77;;;;;;;12.89;100.00;99292.28;7402131;19;20014;-85
2022/05/31 00:47:30;;;;;;;1.27;0.90;;;;;;;12.87;100.00;99289.22;7399575;19;20014;-85
2022/05/31 00:50:06;;;;;;;3.10;1.17;;;;;;;12.86;100.00;99293.28;7399876;19;20019;-82
2022/05/31 00:52:50;;;;;;;1.00;0.77;;;;;;;12.85;100.00;99285.41;7395610;19;20014;-85
2022/05/31 00:55:19;;;;;;;2.63;1.40;;;;;;;12.82;100.00;99292.03;7397861;19;20029;-85
2022/05/31 00:57:59;;;;;;;2.85;0.73;;;;;;;12.79;100.00;99287.44;7396818;19;20035;-85
2022/05/31 01:00:26;;;;;;;1.52;0.75;;;;;;;12.80;100.00;99288.94;7398377;19;20014;-85
2022/05/31 01:02:52;;;;;;;2.05;0.80;;;;;;;12.80;100.00;99289.72;7398730;19;20010;-85
2022/05/31 01:05:20;;;;;;;0.85;0.85;;;;;;;12.81;100.00;99296.06;7398558;19;20019;-85
2022/05/31 01:07:46;;;;;;;0.98;0.82;;;;;;;12.84;100.00;99290.22;7397871;19;20019;-86
2022/05/31 01:10:14;;;;;;;1.83;0.93;;;;;;;12.84;100.00;99284.66;7396992;19;20017;-86
2022/05/31 01:13:02;;;;;;;1.70;1.02;;;;;;;12.77;100.00;99284.38;7396675;19;20009;-85
2022/05/31 01:15:48;;;;;;;3.88;1.20;;;;;;;12.80;100.00;99280.56;7400780;19;20011;-85
2022/05/31 01:18:33;;;;;;;1.08;0.95;;;;;;;12.84;100.00;99283.91;7398217;19;20015;-86
2022/05/31 01:21:18;;;;;;;1.95;1.10;;;;;;;12.86;100.00;99270.19;7399477;19;20018;-85
2022/05/31 01:24:16;;;;;;;1.10;0.57;;;;;;;12.94;100.00;99271.97;7399608;19;20014;-86
2022/05/31 01:27:00;;;;;;;3.03;1.27;;;;;;;12.94;100.00;99271.22;7396485;19;20026;-86
2022/05/31 01:29:32;;;;;;;1.75;1.00;;;;;;;12.97;100.00;99266.63;7397736;19;20010;-85
2022/05/31 01:32:12;;;;;;;1.08;1.08;;;;;;;12.97;100.00;99270.22;7395509;19;20030;-86
2022/05/31 01:34:44;;;;;;;7.65;2.58;;;;;;;12.97;100.00;99270.22;7401087;19;20016;-88
2022/05/31 01:37:11;;;;;;;2.47;1.00;;;;;;;12.95;100.00;99278.31;7399088;19;20007;-85
2022/05/31 01:39:50;;;;;;;2.65;1.23;;;;;;;12.89;100.00;99274.75;7398529;19;20031;-88
2022/05/31 01:42:23;;;;;;;3.22;1.25;;;;;;;12.90;100.00;99271.47;7398526;19;20461;-85
2022/05/31 01:45:00;;;;;;;0.60;0.60;;;;;;;12.88;100.00;99281.63;7400813;19;20035;-86
2022/05/31 01:47:27;;;;;;;1.25;0.85;;;;;;;12.91;100.00;99272.22;7397761;19;20088;-86
2022/05/31 01:49:54;;;;;;;4.85;0.98;;;;;;;12.89;100.00;99274.75;7397655;19;20113;-86
2022/05/31 01:52:22;;;;;;;3.75;1.25;;;;;;;12.88;100.00;99273.25;7395357;19;20052;-86
2022/05/31 01:54:50;;;;;;;2.45;1.33;;;;;;;12.85;100.00;99279.81;7396914;19;20006;-86
2022/05/31 01:57:18;;;;;;;3.47;1.60;;;;;;;12.85;100.00;99271.44;7396647;19;20030;-85
2022/05/31 01:59:48;;;;;;;1.80;1.15;;;;;;;12.82;100.00;99273.22;7396920;19;20015;-85
2022/05/31 02:02:17;;;;;;;2.40;0.85;;;;;;;12.81;100.00;99276.53;7395309;19;20018;-89
2022/05/31 02:04:43;;;;;;;2.92;0.80;;;;;;;12.76;100.00;99274.47;7398752;19;20010;-88
2022/05/31 02:07:13;;;;;;;3.20;0.95;;;;;;;12.74;100.00;99277.00;7395988;19;20006;-93
2022/05/31 02:09:45;;;;;;;4.60;1.13;;;;;;;12.74;100.00;99272.19;7395413;19;20006;-91
2022/05/31 02:12:19;;;;;;;6.95;1.25;;;;;;;12.77;100.00;99284.38;7397156;19;20021;-91
2022/05/31 02:15:01;;;;;;;1.02;0.73;;;;;;;12.81;100.00;99280.09;7401359;19;20026;-91
2022/05/31 02:17:27;;;;;;;3.45;0.90;;;;;;;12.82;100.00;99281.59;7397687;19;20560;-92
2022/05/31 02:20:16;;;;;;;1.05;0.88;;;;;;;12.80;100.00;99277.78;7398246;19;20006;-92
2022/05/31 02:22:42;;;;;;;3.38;0.63;;;;;;;12.76;100.00;99277.25;7396209;19;20086;-91
2022/05/31 02:25:09;;;;;;;2.10;1.02;;;;;;;12.79;100.00;99276.25;7396915;19;20014;-91
2022/05/31 02:27:36;;;;;;;2.60;1.45;;;;;;;12.77;100.00;99276.00;7395099;19;20014;-90
2022/05/31 02:30:02;;;;;;;1.60;0.90;;;;;;;12.79;100.00;99279.06;7396485;19;20039;-90
2022/05/31 02:32:28;;;;;;;0.80;0.80;;;;;;;12.79;100.00;99277.03;7396318;19;20031;-91
2022/05/31 02:34:55;;;;;;;0.82;0.73;;;;;;;12.78;100.00;99269.13;7396291;19;20010;-90
2022/05/31 02:37:22;;;;;;;3.90;1.65;;;;;;;12.76;100.00;99271.66;7395705;19;20035;-89
2022/05/31 02:39:48;;;;;;;1.42;1.10;;;;;;;12.78;100.00;99271.94;7395662;19;20015;-90
2022/05/31 02:42:17;;;;;;;4.50;1.00;;;;;;;12.75;100.00;99270.16;7395633;19;20472;-89
2022/05/31 02:44:44;;;;;;;1.52;0.98;;;;;;;12.73;100.00;99262.25;7400159;19;20014;-89
2022/05/31 02:47:11;;;;;;;4.18;1.17;;;;;;;12.78;100.00;99263.53;7394479;19;20074;-88
2022/05/31 02:49:39;;;;;;;2.85;0.60;;;;;;;12.78;100.00;99269.91;7396324;19;20035;-88
2022/05/31 02:52:06;;;;;;;3.25;1.50;;;;;;;12.75;100.00;99267.38;7395587;19;20032;-88
2022/05/31 02:54:32;;;;;;;1.58;0.82;;;;;;;12.74;100.00;99263.03;7396807;19;20513;-88
2022/05/31 02:57:17;;;;;;;1.27;0.82;;;;;;;12.74;100.00;99263.81;7395114;19;20010;-89
2022/05/31 03:00:18;;;;;;;1.08;0.70;;;;;;;12.71;100.00;99258.47;7396523;19;20014;-88
2022/05/31 03:03:03;;;;;;;2.17;1.35;;;;;;;12.70;100.00;99263.28;7397445;19;20010;-88
2022/05/31 03:05:50;;;;;;;0.85;0.68;;;;;;;12.68;100.00;99265.06;7394460;19;20015;-88
2022/05/31 03:08:39;;;;;;;2.90;1.23;;;;;;;12.59;100.00;99259.69;7392541;19;20014;-89
2022/05/31 03:11:28;;;;;;;2.25;1.40;;;;;;;12.60;100.00;99250.06;7393313;19;20011;-89
2022/05/31 03:14:02;;;;;;;0.85;0.82;;;;;;;12.55;100.00;99259.19;7395158;19;20118;-90
2022/05/31 03:16:28;;;;;;;3.85;1.23;;;;;;;12.55;100.00;99250.78;7395906;19;20475;-89
2022/05/31 03:19:03;;;;;;;0.77;0.77;;;;;;;12.56;100.00;99258.66;7394295;19;20011;-90
2022/05/31 03:21:37;;;;;;;2.75;0.90;;;;;;;12.54;100.00;99252.81;7394767;19;20022;-90
2022/05/31 03:24:13;;;;;;;0.85;0.85;;;;;;;12.53;100.00;99248.50;7396664;19;20074;-91
2022/05/31 03:26:43;;;;;;;3.63;1.65;;;;;;;12.45;100.00;99255.09;7392901;19;20492;-92
2022/05/31 03:29:11;;;;;;;2.42;0.88;;;;;;;12.39;100.00;99245.94;7392425;19;20015;-93
2022/05/31 03:31:38;;;;;;;1.77;0.60;;;;;;;12.36;100.00;99255.31;7393402;19;20010;-92
2022/05/31 03:34:04;;;;;;;1.88;0.77;;;;;;;12.38;100.00;99256.34;7396098;19;20104;-93
2022/05/31 03:36:31;;;;;;;2.00;1.30;;;;;;;12.45;100.00;99249.50;7394769;19;20012;-91
2022/05/31 03:39:05;;;;;;;0.40;0.40;;;;;;;12.44;100.00;99245.94;7394965;19;20038;-92
2022/05/31 03:41:34;;;;;;;3.42;1.75;;;;;;;12.36;100.00;99244.91;7394637;19;20031;-91
2022/05/31 03:44:01;;;;;;;3.30;0.70;;;;;;;12.43;100.00;99252.78;7395878;19;20010;-91
2022/05/31 03:46:54;;;;;;;1.35;0.82;;;;;;;12.43;100.00;99243.66;7391766;19;20041;-90
2022/05/31 03:49:31;;;;;;;3.78;0.80;;;;;;;12.43;100.00;99249.25;7391935;19;20007;-90
2022/05/31 03:52:03;;;;;;;1.27;0.82;;;;;;;12.41;100.00;99251.78;7391727;19;20018;-90
2022/05/31 03:54:36;;;;;;;2.67;0.80;;;;;;;12.38;100.00;99247.97;7395451;19;20010;-91
2022/05/31 03:57:19;;;;;;;1.77;0.63;;;;;;;12.34;100.00;99247.44;7395376;19;20017;-90
2022/05/31 03:59:54;;;;;;;2.30;1.33;;;;;;;12.35;100.00;99243.38;7393773;19;20461;-90
2022/05/31 04:02:26;;;;;;;3.38;0.80;;;;;;;12.34;100.00;99241.84;7392221;19;20022;-90
2022/05/31 04:04:53;;;;;;;1.40;1.20;;;;;;;12.34;100.00;99241.84;7391017;19;20050;-90
2022/05/31 04:07:19;;;;;;;1.38;0.65;;;;;;;12.38;100.00;99249.97;7393921;19;20021;-90
2022/05/31 04:09:45;;;;;;;0.98;0.73;;;;;;;12.32;100.00;99249.22;7394031;19;20014;-90
2022/05/31 04:12:12;;;;;;;1.05;0.90;;;;;;;12.30;100.00;99246.91;7394006;19;20018;-90
2022/05/31 04:15:05;;;;;;;0.45;0.45;;;;;;;12.27;100.00;99241.56;7393251;19;20019;-90
2022/05/31 04:17:31;;;;;;;2.00;1.10;;;;;;;12.39;100.00;99240.34;7393333;19;20010;-90
2022/05/31 04:19:58;;;;;;;1.58;0.85;;;;;;;12.40;100.00;99242.63;7393459;19;20022;-90
2022/05/31 04:22:24;;;;;;;1.67;1.15;;;;;;;12.42;100.00;99242.13;7391578;19;20021;-91
2022/05/31 04:25:00;;;;;;;3.08;0.45;;;;;;;12.49;100.00;99250.78;7391311;19;20014;-91
2022/05/31 04:27:45;;;;;;;1.40;1.27;;;;;;;12.54;100.00;99238.13;7399860;19;20014;-91
2022/05/31 04:30:30;;;;;;;1.20;0.98;;;;;;;12.56;100.00;99238.38;7400472;19;20346;-90
2022/05/31 04:33:14;;;;;;;1.67;1.08;;;;;;;12.59;100.00;99237.34;7401877;19;20015;-92
2022/05/31 04:35:41;;;;;;;2.42;0.73;;;;;;;12.60;100.00;99242.44;7400164;19;20506;-91
2022/05/31 04:38:07;;;;;;;0.77;0.75;;;;;;;12.63;100.00;99240.66;7399916;19;20013;-91
2022/05/31 04:40:47;;;;;;;0.70;0.63;;;;;;;12.66;100.00;99236.84;7399138;19;20094;-90
2022/05/31 04:43:34;;;;;;;1.05;1.02;;;;;;;12.66;100.00;99243.22;7400376;19;20330;-88
2022/05/31 04:46:18;;;;;;;2.60;0.65;;;;;;;12.70;100.00;99240.94;7397948;19;20114;-88
2022/05/31 04:48:55;;;;;;;1.92;1.10;;;;;;;12.76;100.00;99243.72;7396525;19;20021;-89
2022/05/31 04:51:22;;;;;;;3.03;0.30;;;;;;;12.70;100.00;99251.34;7396281;19;20074;-85
2022/05/31 04:53:54;;;;;;;1.83;1.73;;;;;;;12.70;100.00;99246.53;7401950;19;20074;-91
2022/05/31 04:56:46;;;;;;;0.45;0.32;;;;;;;12.70;100.00;99252.13;7399691;19;20018;-91
2022/05/31 04:59:13;;;;;;;2.65;0.68;;;;;;;12.70;100.00;99252.13;7400339;19;20051;-89
2022/05/31 05:01:40;;;;;;;0.45;0.30;;;;;;;12.67;100.00;99246.75;7398871;19;20400;-91
2022/05/31 05:04:13;;;;;;;2.83;0.73;;;;;;;12.74;100.00;99246.25;7401194;19;20055;-91
2022/05/31 05:06:52;;;;;;;0.68;0.47;;;;;;;12.80;100.00;99256.19;7396760;19;20011;-90
2022/05/31 05:09:20;;;;;;;1.08;1.05;;;;;;;12.79;100.00;99248.31;7396724;19;20479;-87
2022/05/31 05:12:07;;;;;;;0.17;0.17;;;;;;;12.76;100.00;99249.31;7394288;19;20078;-90
2022/05/31 05:14:36;;;;;;;1.77;0.75;;;;;;;12.74;100.00;99252.63;7401158;19;20041;-90
2022/05/31 05:17:11;;;;;;;1.52;0.50;;;;;;;12.77;100.00;99243.25;7399038;19;20006;-91
2022/05/31 05:19:43;;;;;;;0.68;0.30;;;;;;;12.73;100.00;99250.34;7397497;19;20837;-91
2022/05/31 05:22:09;;;;;;;0.40;0.40;;;;;;;12.78;100.00;99246.78;7398594;19;20007;-92
2022/05/31 05:24:35;;;;;;;1.23;0.30;;;;;;;12.84;100.00;99245.53;7400448;19;20078;-92
2022/05/31 05:27:20;;;;;;;0.65;0.40;;;;;;;12.85;100.00;99251.88;7398349;19;20019;-92
2022/05/31 05:32:41;;;;;;;0.45;0.40;;;;;;;12.94;100.00;99254.44;7396457;19;20014;-93
2022/05/31 05:35:25;;;;;;;1.23;0.65;;;;;;;13.00;100.00;99255.19;7399142;19;20018;-92
2022/05/31 05:38:06;;;;;;;2.35;0.50;;;;;;;13.01;100.00;99262.34;7396106;19;20046;-92
2022/05/31 05:40:37;;;;;;;1.00;0.57;;;;;;;13.02;100.00;99260.28;7398574;19;20010;-92
2022/05/31 05:43:10;;;;;;;0.57;0.57;;;;;;;13.08;100.00;99259.03;7399043;19;20018;-92
2022/05/31 05:45:55;;;;;;;0.38;0.38;;;;;;;13.17;100.00;99256.00;7397300;19;20416;-92
2022/05/31 05:48:21;;;;;;;0.90;0.60;;;;;;;13.19;100.00;99263.91;7396158;19;20038;-92
2022/05/31 05:50:48;;;;;;;0.93;0.93;;;;;;;13.15;100.00;99264.13;7397609;19;20046;-91
2022/05/31 05:53:32;;;;;;;0.70;0.70;;;;;;;13.14;100.00;99254.25;7401960;19;20058;-91
2022/05/31 05:56:27;;;;;;;0.20;0.20;;;;;;;13.16;100.00;99253.72;7396957;19;20093;-92
2022/05/31 05:59:13;;;;;;;1.30;0.40;;;;;;;13.16;100.00;99259.31;7397876;19;20014;-92
2022/05/31 06:02:18;;;;;;;0.77;0.75;;;;;;;13.21;100.00;99256.50;7397359;19;20015;-92
2022/05/31 06:05:07;;;;;;;0.63;0.20;;;;;;;13.22;100.00;99258.06;7395837;19;20029;-92
2022/05/31 06:07:44;;;;;;;0.40;0.40;;;;;;;13.25;100.00;99262.63;7397552;19;20373;-93
2022/05/31 06:10:19;;;;;;;0.70;0.40;;;;;;;13.24;100.00;99261.09;7397638;19;20014;-92
2022/05/31 06:12:54;;;;;;;0.60;0.60;;;;;;;13.25;100.00;99261.88;7398275;19;20018;-92
2022/05/31 06:15:31;;;;;;;1.30;0.43;;;;;;;13.23;100.00;99267.94;7395924;19;20014;-92
2022/05/31 06:18:01;;;;;;;0.40;0.40;;;;;;;13.26;100.00;99264.16;7397357;19;20062;-92
2022/05/31 06:20:29;;;;;;;4.32;0.47;;;;;;;13.31;100.00;99260.59;7397166;19;20014;-92
2022/05/31 06:22:56;;;;;;;0.55;0.52;;;;;;;13.34;100.00;99265.16;7396867;19;20010;-92
2022/05/31 06:25:23;;;;;;;1.38;0.38;;;;;;;13.29;100.00;99267.97;7395197;19;20014;-93
2022/05/31 06:28:08;;;;;;;1.35;0.68;;;;;;;13.28;100.00;99272.78;7395359;19;20010;-93
2022/05/31 06:30:34;;;;;;;0.32;0.25;;;;;;;13.27;100.00;99270.50;7395309;19;20586;-93
2022/05/31 06:33:00;;;;;;;0.75;0.50;;;;;;;13.19;100.00;99269.50;7395297;19;20007;-93
2022/05/31 06:35:27;;;;;;;0.30;0.30;;;;;;;13.20;100.00;99277.38;7395188;19;20019;-91
2022/05/31 06:37:59;;;;;;;0.90;0.85;;;;;;;13.12;100.00;99276.34;7396397;19;20018;-92
2022/05/31 06:40:27;;;;;;;0.30;0.30;;;;;;;13.11;100.00;99272.03;7397053;19;20007;-92
2022/05/31 06:43:05;;;;;;;0.90;0.47;;;;;;;13.08;100.00;99281.41;7398747;19;20035;-92
2022/05/31 06:45:50;;;;;;;0.82;0.40;;;;;;;13.10;100.00;99278.91;7412301;19;20012;-90
2022/05/31 06:48:25;;;;;;;2.53;0.52;;;;;;;13.15;100.00;99277.34;7406766;19;20019;-91
2022/05/31 06:51:11;;;;;;;1.02;0.43;;;;;;;13.22;100.00;99280.41;7404237;19;20018;-86
2022/05/31 06:57:06;;;;;;;2.05;0.90;;;;;;;13.36;100.00;99284.25;7396056;19;20006;-90
2022/05/31 06:59:39;;;;;;;2.40;0.60;;;;;;;13.40;100.00;99287.53;7396699;19;20017;-91
2022/05/31 07:02:05;;;;;;;0.95;0.90;;;;;;;13.46;100.00;99288.31;7395673;19;20021;-90
2022/05/31 07:04:34;;;;;;;3.22;1.23;;;;;;;13.54;100.00;99290.06;7398811;19;20345;-89
2022/05/31 07:07:01;;;;;;;7.13;1.67;;;;;;;13.56;100.00;99289.56;7392830;19;20022;-90
2022/05/31 07:09:46;;;;;;;1.70;0.70;;;;;;;13.59;100.00;99292.13;7394716;19;20007;-89
2022/05/31 07:12:24;;;;;;;1.35;0.82;;;;;;;13.73;100.00;99290.31;7392911;19;20018;-85
2022/05/31 07:15:10;;;;;;;1.88;0.65;;;;;;;13.89;100.00;99294.34;7400749;19;20015;-83
2022/05/31 07:18:08;;;;;;;1.33;0.68;;;;;;;13.82;100.00;99289.31;7393517;19;20014;-84
2022/05/31 07:20:35;;;;;;;1.55;0.70;;;;;;;13.89;100.00;99288.75;7394555;19;20014;-84
2022/05/31 07:23:01;;;;;;;1.17;0.43;;;;;;;14.08;100.00;99298.13;7395420;19;20712;-86
2022/05/31 07:25:31;;;;;;;2.28;0.68;;;;;;;14.14;100.00;99287.69;7391909;19;20127;-86
2022/05/31 07:28:06;;;;;;;3.53;0.73;;;;;;;14.44;100.00;99288.63;7393503;19;20015;-86
2022/05/31 07:30:34;;;;;;;3.55;0.77;;;;;;;14.73;100.00;99284.41;7392578;19;20035;-87
2022/05/31 07:33:01;;;;;;;0.70;0.70;;;;;;;14.86;100.00;99290.97;7393365;19;20029;-86
2022/05/31 07:35:29;;;;;;;1.33;0.77;;;;;;;15.08;100.00;99288.03;7394150;19;20509;-86
2022/05/31 07:37:56;;;;;;;0.65;0.63;;;;;;;15.37;100.00;99285.78;7392585;19;20021;-85
2022/05/31 07:40:26;;;;;;;1.95;1.08;;;;;;;15.44;100.00;99282.44;7393891;19;20015;-86
2022/05/31 07:42:52;;;;;;;2.22;0.75;;;;;;;15.44;100.00;99285.25;7393454;19;20010;-85
2022/05/31 07:45:19;;;;;;;1.48;0.63;;;;;;;15.39;100.00;99295.19;7391607;19;20022;-86
2022/05/31 07:47:46;;;;;;;1.77;0.75;;;;;;;15.38;100.00;99288.06;7391591;19;20019;-86
2022/05/31 07:50:12;;;;;;;3.15;0.88;;;;;;;15.31;100.00;99282.25;7394803;19;20011;-86
2022/05/31 07:52:56;;;;;;;0.75;0.75;;;;;;;15.18;100.00;99288.47;7393770;19;20007;-87
2022/05/31 07:55:37;;;;;;;4.30;1.17;;;;;;;15.03;100.00;99291.63;7393569;19;20045;-85
2022/05/31 07:58:31;;;;;;;1.92;1.02;;;;;;;15.11;100.00;99286.22;7394343;19;20019;-85
2022/05/31 08:01:29;;;;;;;1.90;0.60;;;;;;;15.14;100.00;99285.94;7400624;19;20011;-85
2022/05/31 08:04:03;;;;;;;2.22;1.33;;;;;;;15.33;100.00;99285.31;7399556;19;20034;-85
2022/05/31 08:06:32;;;;;;;6.32;1.25;;;;;;;15.43;100.00;99289.28;7398488;19;20018;-84
2022/05/31 08:08:58;;;;;;;2.42;0.90;;;;;;;15.54;100.00;99286.44;7398299;19;20711;-86
2022/05/31 08:11:30;;;;;;;1.50;1.08;;;;;;;15.62;100.00;99288.13;7397552;19;20078;-85
2022/05/31 08:13:57;;;;;;;1.92;1.17;;;;;;;15.67;100.00;99292.19;7400515;19;20491;-84
2022/05/31 08:16:26;;;;;;;3.15;1.80;;;;;;;15.70;100.00;99291.88;7400247;19;20062;-84
2022/05/31 08:18:53;;;;;;;2.55;1.27;;;;;;;15.75;100.00;99293.88;7400313;19;20014;-83
2022/05/31 08:21:27;;;;;;;6.03;1.98;;;;;;;15.79;100.00;99293.59;7400651;19;20033;-84
2022/05/31 08:23:59;;;;;;;7.05;2.25;;;;;;;15.67;100.00;99292.94;7400619;19;20015;-83
2022/05/31 08:26:27;;;;;;;4.57;2.15;;;;;;;15.64;100.00;99293.97;7397711;19;20046;-83
2022/05/31 08:28:54;;;;;;;2.53;1.83;;;;;;;15.65;100.00;99303.16;7394889;19;20057;-85
2022/05/31 08:31:24;;;;;;;5.13;2.30;;;;;;;15.59;100.00;99299.66;7397581;19;20010;-84
2022/05/31 08:33:51;;;;;;;3.45;2.22;;;;;;;15.59;100.00;99296.84;7400105;19;20043;-84
2022/05/31 08:36:17;;;;;;;6.40;2.33;;;;;;;15.58;100.00;99295.31;7398524;19;20011;-85
2022/05/31 08:38:43;;;;;;;2.72;2.45;;;;;;;15.62;100.00;99296.56;7400145;19;20018;-85
2022/05/31 08:41:24;;;;;;;3.42;1.77;;;;;;;15.78;100.00;99292.09;7396777;19;20353;-85
2022/05/31 08:43:50;;;;;;;5.38;2.75;;;;;;;16.16;100.00;99295.75;7399327;19;20453;-84
2022/05/31 08:46:35;;;;;;;7.00;2.55;;;;;;;16.77;100.00;99292.25;7397548;19;20516;-85
2022/05/31 08:49:23;;;;;;;5.05;1.85;;;;;;;17.22;100.00;99293.13;7395831;19;20039;-85
2022/05/31 08:52:04;;;;;;;6.78;2.45;;;;;;;17.56;100.00;99294.16;7395441;19;20011;-84
2022/05/31 08:57:46;;;;;;;3.95;2.00;;;;;;;17.62;100.00;99288.41;7397795;19;20025;-84
2022/05/31 09:00:18;;;;;;;10.20;2.33;;;;;;;17.24;100.00;99294.09;7395338;19;20014;-84
2022/05/31 09:03:01;;;;;;;8.93;2.45;;;;;;;16.94;100.00;99285.09;7396683;19;20047;-84
2022/05/31 09:05:30;;;;;;;9.95;2.85;;;;;;;16.50;100.00;99294.88;7391872;19;20014;-86
2022/05/31 09:08:09;;;;;;;9.10;2.33;;;;;;;16.25;100.00;99289.78;7393167;19;20021;-81
2022/05/31 09:10:44;;;;;;;3.83;2.10;;;;;;;16.08;100.00;99292.78;7394255;19;20029;-85
2022/05/31 09:13:32;;;;;;;17.20;3.45;;;;;;;16.15;100.00;99292.22;7390609;19;20037;-84
2022/05/31 09:18:59;;;;;;;3.75;1.65;;;;;;;17.71;100.00;99285.97;7417376;19;20389;-91
2022/05/31 09:21:26;;;;;;;1.70;1.02;;;;;;;18.39;100.00;99291.84;7396199;19;20049;-92
2022/05/31 09:23:55;;;;;;;2.25;1.15;;;;;;;18.11;100.00;99301.63;7394887;19;20456;-83
2022/05/31 09:26:53;;;;;;;2.30;1.58;;;;;;;17.27;100.00;99324.00;7391971;19;20015;-83
2022/05/31 09:29:58;;;;;;;1.80;1.35;;;;;;;16.44;100.00;99335.56;7394411;19;20038;-86
2022/05/31 09:32:46;;;;;;;2.65;1.20;;;;;;;15.47;100.00;99320.66;7392632;19;20027;-86
2022/05/31 09:35:27;;;;;;;1.10;0.60;;;;;;;14.80;100.00;99315.47;7391480;19;20023;-86
2022/05/31 09:38:32;;;;;;;2.55;1.40;;;;;;;14.40;100.00;99318.97;7389884;19;20034;-86
2022/05/31 09:41:35;;;;;;;1.85;1.48;;;;;;;14.24;100.00;99317.72;7389333;19;20006;-85
2022/05/31 09:44:31;;;;;;;0.93;0.90;;;;;;;14.15;100.00;99314.41;7389896;19;20496;-85
2022/05/31 09:47:06;;;;;;;0.60;0.60;;;;;;;14.11;100.00;99330.72;7387331;19;20476;-86
2022/05/31 09:49:40;;;;;;;0.57;0.55;;;;;;;14.16;100.00;99329.94;7388812;19;20015;-86
2022/05/31 09:52:43;;;;;;;1.17;0.95;;;;;;;14.20;100.00;99322.81;7386500;19;20054;-86
2022/05/31 09:58:36;;;;;;;0.57;0.52;;;;;;;14.63;100.00;99325.22;7386227;19;20018;-87
2022/05/31 10:01:14;;;;;;;1.10;0.82;;;;;;;15.11;100.00;99315.03;7387011;19;20044;-87
2022/05/31 10:03:46;;;;;;;2.30;0.95;;;;;;;15.80;100.00;99314.78;7389599;19;20022;-88
2022/05/31 10:06:16;;;;;;;1.65;0.98;;;;;;;16.35;100.00;99317.00;7387249;19;20500;-87
2022/05/31 10:08:43;;;;;;;4.88;1.08;;;;;;;16.63;100.00;99327.97;7388725;19;20018;-88
2022/05/31 10:11:13;;;;;;;2.05;1.17;;;;;;;16.41;100.00;99326.16;7389229;19;20082;-87
2022/05/31 10:13:54;;;;;;;1.05;0.85;;;;;;;16.23;100.00;99326.09;7390406;19;20022;-87
2022/05/31 10:16:30;;;;;;;3.63;0.90;;;;;;;16.02;100.00;99322.22;7388709;19;20050;-87
2022/05/31 10:19:02;;;;;;;0.85;0.45;;;;;;;16.00;100.00;99331.19;7390926;19;20014;-86
2022/05/31 10:21:40;;;;;;;1.20;0.50;;;;;;;16.07;100.00;99330.59;7389677;19;20042;-86
2022/05/31 10:24:28;;;;;;;0.65;0.43;;;;;;;16.16;100.00;99333.06;7389227;19;20026;-85
2022/05/31 10:27:26;;;;;;;0.40;0.20;;;;;;;16.22;100.00;99336.56;7388780;19;20015;-86
2022/05/31 10:30:09;;;;;;;2.75;1.13;;;;;;;16.14;100.00;99324.38;7386934;19;20056;-87
2022/05/31 10:33:06;;;;;;;0.40;0.40;;;;;;;15.97;100.00;99329.41;7389083;19;20014;-86
2022/05/31 10:35:39;;;;;;;0.38;0.32;;;;;;;15.96;100.00;99329.94;7390636;19;20014;-86
2022/05/31 10:38:17;;;;;;;0.32;0.20;;;;;;;15.97;100.00;99326.59;7387270;19;20033;-87
2022/05/31 10:40:57;;;;;;;1.13;0.65;;;;;;;16.17;100.00;99323.34;7388588;19;20014;-89
2022/05/31 10:43:37;;;;;;;2.33;0.57;;;;;;;16.31;100.00;99332.63;7389669;19;20082;-90
2022/05/31 10:46:23;;;;;;;0.63;0.35;;;;;;;16.34;100.00;99321.13;7388198;19;20476;-87
2022/05/31 10:48:53;;;;;;;0.82;0.47;;;;;;;16.51;100.00;99324.53;7385521;19;20070;-86
2022/05/31 10:51:47;;;;;;;0.98;0.35;;;;;;;16.76;100.00;99318.84;7386938;19;20039;-87
2022/05/31 10:54:39;;;;;;;4.10;0.80;;;;;;;16.95;100.00;99322.44;7390550;19;20014;-86
2022/05/31 10:57:05;;;;;;;0.70;0.57;;;;;;;17.27;100.00;99324.00;7389756;19;20550;-87
2022/05/31 10:59:37;;;;;;;0.57;0.40;;;;;;;17.49;100.00;99314.47;7389402;19;20006;-86
2022/05/31 11:02:03;;;;;;;0.45;0.10;;;;;;;17.70;100.00;99318.22;7388610;19;20046;-86
2022/05/31 11:04:45;;;;;;;2.78;1.38;;;;;;;18.18;100.00;99309.44;7391145;19;20085;-86
2022/05/31 11:07:17;;;;;;;1.75;0.55;;;;;;;17.91;100.00;99321.22;7386351;19;20085;-86
2022/05/31 11:13:06;;;;;;;0.52;0.28;;;;;;;16.82;100.00;99308.28;7386890;19;20395;-86
2022/05/31 11:15:38;;;;;;;1.63;0.45;;;;;;;16.48;100.00;99317.09;7386668;19;20015;-86
2022/05/31 11:18:23;;;;;;;2.03;0.43;;;;;;;16.29;100.00;99326.78;7386998;19;20034;-87
2022/05/31 11:20:57;;;;;;;0.50;0.50;;;;;;;16.39;100.00;99320.31;7388585;19;20022;-86
2022/05/31 11:23:59;;;;;;;1.25;0.60;;;;;;;16.68;100.00;99313.06;7387601;19;20015;-86
2022/05/31 11:26:39;;;;;;;0.32;0.32;;;;;;;17.08;100.00;99314.06;7383554;19;20015;-86
2022/05/31 11:29:25;;;;;;;1.25;0.38;;;;;;;17.46;100.00;99304.25;7386390;19;20014;-90
2022/05/31 11:32:22;;;;;;;1.02;0.55;;;;;;;18.09;100.00;99304.22;7384851;19;20022;-86
2022/05/31 11:35:00;;;;;;;1.00;0.35;;;;;;;18.77;100.00;99298.78;7385404;19;20019;-86
2022/05/31 11:38:01;;;;;;;0.90;0.35;;;;;;;18.59;100.00;99300.44;7391753;19;20025;-85
2022/05/31 11:40:50;;;;;;;0.40;0.40;;;;;;;18.64;100.00;99301.63;7393674;19;20122;-85
2022/05/31 11:43:25;;;;;;;2.17;0.20;;;;;;;18.64;100.00;99291.09;7394561;19;20025;-85
2022/05/31 11:46:12;;;;;;;2.15;0.35;;;;;;;18.88;100.00;99301.38;7392939;19;20042;-85
2022/05/31 11:49:02;;;;;;;0.57;0.40;;;;;;;19.54;100.00;99302.66;7389927;19;20022;-82
2022/05/31 11:51:57;;;;;;;0.45;0.45;;;;;;;20.07;100.00;99291.03;7387866;19;20015;-80
2022/05/31 11:58:18;;;;;;;1.10;0.60;;;;;;;20.62;100.00;99286.66;7382546;19;20014;-80
2022/05/31 12:01:06;;;;;;;0.38;0.13;;;;;;;20.19;100.00;99293.00;7386165;19;20719;-81
2022/05/31 12:03:41;;;;;;;1.38;0.32;;;;;;;19.43;100.00;99297.28;7387797;19;20022;-81
2022/05/31 12:06:23;;;;;;;2.65;0.60;;;;;;;19.30;100.00;99310.66;7386513;19;20018;-81
2022/05/31 12:09:00;;;;;;;3.45;0.30;;;;;;;19.47;100.00;99314.63;7384660;19;20015;-80
2022/05/31 12:11:34;;;;;;;0.30;0.20;;;;;;;19.40;100.00;99318.16;7385036;19;20342;-81
2022/05/31 12:14:01;;;;;;;0.28;0.10;;;;;;;19.17;100.00;99319.94;7387510;19;20015;-81
2022/05/31 12:16:28;;;;;;;0.10;0.00;;;;;;;18.66;100.00;99330.03;7385449;19;20042;-81
2022/05/31 12:19:12;;;;;;;0.68;0.05;;;;;;;18.15;100.00;99330.22;7386556;19;20494;-81
2022/05/31 12:21:42;;;;;;;0.30;0.25;;;;;;;17.67;100.00;99336.19;7384295;19;20010;-80
2022/05/31 12:24:23;;;;;;;0.95;0.25;;;;;;;18.08;100.00;99339.31;7387730;19;20081;-78